sensor_id;sensor_type;location;lat;lon;timestamp;P1;P2;P0
36513;PMS5003;74739;46.796;9.824;2024-03-08T00:01:39;11;9;
36513;PMS5003;74739;46.796;9.824;2024-03-08T00:04:06;9;9;
36513;PMS5003;74739;46.796;9.824;2024-03-08T00:06:33;5;5;
36513;PMS5003;74739;46.796;9.824;2024-03-08T00:09:00;7;6;
36513;PMS5003;74739;46.796;9.824;2024-03-08T00:11:28;6;5;
36513;PMS5003;74739;46.796;9.824;2024-03-08T00:13:56;2;2;
36513;PMS5003;74739;46.796;9.824;2024-03-08T00:16:23;2;2;
36513;PMS5003;74739;46.796;9.824;2024-03-08T00:18:51;3;3;
36513;PMS5003;74739;46.796;9.824;2024-03-08T00:21:21;3;3;
36513;PMS5003;74739;46.796;9.824;2024-03-08T00:23:48;2;2;
36513;PMS5003;74739;46.796;9.824;2024-03-08T00:26:16;3;3;
36513;PMS5003;74739;46.796;9.824;2024-03-08T00:28:44;3;3;
36513;PMS5003;74739;46.796;9.824;2024-03-08T00:31:12;2;2;
36513;PMS5003;74739;46.796;9.824;2024-03-08T00:33:39;3;1;
36513;PMS5003;74739;46.796;9.824;2024-03-08T00:36:06;2;2;
36513;PMS5003;74739;46.796;9.824;2024-03-08T00:38:33;3;2;
36513;PMS5003;74739;46.796;9.824;2024-03-08T00:41:00;4;2;
36513;PMS5003;74739;46.796;9.824;2024-03-08T00:43:27;2;2;
36513;PMS5003;74739;46.796;9.824;2024-03-08T00:45:54;2;2;
36513;PMS5003;74739;46.796;9.824;2024-03-08T00:48:21;3;2;
36513;PMS5003;74739;46.796;9.824;2024-03-08T00:50:50;4;3;
36513;PMS5003;74739;46.796;9.824;2024-03-08T00:53:18;2;2;
36513;PMS5003;74739;46.796;9.824;2024-03-08T00:55:45;2;2;
36513;PMS5003;74739;46.796;9.824;2024-03-08T00:58:13;2;2;
36513;PMS5003;74739;46.796;9.824;2024-03-08T01:00:40;2;2;
36513;PMS5003;74739;46.796;9.824;2024-03-08T01:03:07;3;2;
36513;PMS5003;74739;46.796;9.824;2024-03-08T01:05:35;4;3;
36513;PMS5003;74739;46.796;9.824;2024-03-08T01:08:03;2;2;
36513;PMS5003;74739;46.796;9.824;2024-03-08T01:10:31;2;2;
36513;PMS5003;74739;46.796;9.824;2024-03-08T01:13:04;2;2;
36513;PMS5003;74739;46.796;9.824;2024-03-08T01:15:33;1;1;
36513;PMS5003;74739;46.796;9.824;2024-03-08T01:18:06;2;1;
36513;PMS5003;74739;46.796;9.824;2024-03-08T01:20:33;1;1;
36513;PMS5003;74739;46.796;9.824;2024-03-08T01:23:01;3;2;
36513;PMS5003;74739;46.796;9.824;2024-03-08T01:25:30;1;1;
36513;PMS5003;74739;46.796;9.824;2024-03-08T01:27:58;2;2;
36513;PMS5003;74739;46.796;9.824;2024-03-08T01:30:26;1;1;
36513;PMS5003;74739;46.796;9.824;2024-03-08T01:32:54;1;1;
36513;PMS5003;74739;46.796;9.824;2024-03-08T01:35:22;3;3;
36513;PMS5003;74739;46.796;9.824;2024-03-08T01:37:50;2;2;
36513;PMS5003;74739;46.796;9.824;2024-03-08T01:40:19;5;3;
36513;PMS5003;74739;46.796;9.824;2024-03-08T01:42:48;2;2;
36513;PMS5003;74739;46.796;9.824;2024-03-08T01:45:16;8;5;
36513;PMS5003;74739;46.796;9.824;2024-03-08T01:47:44;7;7;
36513;PMS5003;74739;46.796;9.824;2024-03-08T01:50:12;9;7;
36513;PMS5003;74739;46.796;9.824;2024-03-08T01:52:40;5;5;
36513;PMS5003;74739;46.796;9.824;2024-03-08T01:55:08;6;5;
36513;PMS5003;74739;46.796;9.824;2024-03-08T01:57:37;5;3;
36513;PMS5003;74739;46.796;9.824;2024-03-08T02:00:06;6;3;
36513;PMS5003;74739;46.796;9.824;2024-03-08T02:02:35;2;2;
36513;PMS5003;74739;46.796;9.824;2024-03-08T02:05:09;3;2;
36513;PMS5003;74739;46.796;9.824;2024-03-08T02:07:37;3;2;
36513;PMS5003;74739;46.796;9.824;2024-03-08T02:10:07;3;2;
36513;PMS5003;74739;46.796;9.824;2024-03-08T02:12:36;1;1;
36513;PMS5003;74739;46.796;9.824;2024-03-08T02:15:06;3;3;
36513;PMS5003;74739;46.796;9.824;2024-03-08T02:17:34;3;3;
36513;PMS5003;74739;46.796;9.824;2024-03-08T02:20:02;5;5;
36513;PMS5003;74739;46.796;9.824;2024-03-08T02:22:31;6;5;
36513;PMS5003;74739;46.796;9.824;2024-03-08T02:24:59;6;6;
36513;PMS5003;74739;46.796;9.824;2024-03-08T02:27:29;6;6;
36513;PMS5003;74739;46.796;9.824;2024-03-08T02:29:57;6;5;
36513;PMS5003;74739;46.796;9.824;2024-03-08T02:32:25;3;3;
36513;PMS5003;74739;46.796;9.824;2024-03-08T02:34:56;5;5;
36513;PMS5003;74739;46.796;9.824;2024-03-08T02:37:24;3;3;
36513;PMS5003;74739;46.796;9.824;2024-03-08T02:39:52;5;3;
36513;PMS5003;74739;46.796;9.824;2024-03-08T02:42:21;3;3;
36513;PMS5003;74739;46.796;9.824;2024-03-08T02:44:49;3;3;
36513;PMS5003;74739;46.796;9.824;2024-03-08T02:47:17;2;2;
36513;PMS5003;74739;46.796;9.824;2024-03-08T02:49:45;3;3;
36513;PMS5003;74739;46.796;9.824;2024-03-08T02:52:13;2;1;
36513;PMS5003;74739;46.796;9.824;2024-03-08T02:54:41;1;1;
36513;PMS5003;74739;46.796;9.824;2024-03-08T02:57:09;5;5;
36513;PMS5003;74739;46.796;9.824;2024-03-08T02:59:37;5;5;
36513;PMS5003;74739;46.796;9.824;2024-03-08T03:02:07;5;5;
36513;PMS5003;74739;46.796;9.824;2024-03-08T03:04:36;6;5;
36513;PMS5003;74739;46.796;9.824;2024-03-08T03:07:05;7;6;
36513;PMS5003;74739;46.796;9.824;2024-03-08T03:09:33;5;5;
36513;PMS5003;74739;46.796;9.824;2024-03-08T03:12:01;3;3;
36513;PMS5003;74739;46.796;9.824;2024-03-08T03:14:29;3;3;
36513;PMS5003;74739;46.796;9.824;2024-03-08T03:16:57;1;1;
36513;PMS5003;74739;46.796;9.824;2024-03-08T03:19:25;8;6;
36513;PMS5003;74739;46.796;9.824;2024-03-08T03:21:53;6;6;
36513;PMS5003;74739;46.796;9.824;2024-03-08T03:24:20;5;5;
36513;PMS5003;74739;46.796;9.824;2024-03-08T03:26:48;2;2;
36513;PMS5003;74739;46.796;9.824;2024-03-08T03:29:16;5;3;
36513;PMS5003;74739;46.796;9.824;2024-03-08T03:31:44;2;2;
36513;PMS5003;74739;46.796;9.824;2024-03-08T03:34:12;3;2;
36513;PMS5003;74739;46.796;9.824;2024-03-08T03:36:40;2;2;
36513;PMS5003;74739;46.796;9.824;2024-03-08T03:39:08;3;2;
36513;PMS5003;74739;46.796;9.824;2024-03-08T03:41:37;2;2;
36513;PMS5003;74739;46.796;9.824;2024-03-08T03:44:04;2;2;
36513;PMS5003;74739;46.796;9.824;2024-03-08T03:46:32;2;1;
36513;PMS5003;74739;46.796;9.824;2024-03-08T03:49:00;1;1;
36513;PMS5003;74739;46.796;9.824;2024-03-08T03:51:28;3;2;
36513;PMS5003;74739;46.796;9.824;2024-03-08T03:53:56;2;2;
36513;PMS5003;74739;46.796;9.824;2024-03-08T03:56:25;3;2;
36513;PMS5003;74739;46.796;9.824;2024-03-08T03:58:54;2;2;
36513;PMS5003;74739;46.796;9.824;2024-03-08T04:01:22;2;2;
36513;PMS5003;74739;46.796;9.824;2024-03-08T04:03:49;1;1;
36513;PMS5003;74739;46.796;9.824;2024-03-08T04:06:17;3;3;
36513;PMS5003;74739;46.796;9.824;2024-03-08T04:08:45;3;2;
36513;PMS5003;74739;46.796;9.824;2024-03-08T04:11:13;2;2;
36513;PMS5003;74739;46.796;9.824;2024-03-08T04:13:41;5;3;
36513;PMS5003;74739;46.796;9.824;2024-03-08T04:16:09;2;2;
36513;PMS5003;74739;46.796;9.824;2024-03-08T04:18:37;2;2;
36513;PMS5003;74739;46.796;9.824;2024-03-08T04:21:04;3;1;
36513;PMS5003;74739;46.796;9.824;2024-03-08T04:23:33;2;2;
36513;PMS5003;74739;46.796;9.824;2024-03-08T04:26:01;6;2;
36513;PMS5003;74739;46.796;9.824;2024-03-08T04:28:29;3;2;
36513;PMS5003;74739;46.796;9.824;2024-03-08T04:30:57;2;2;
36513;PMS5003;74739;46.796;9.824;2024-03-08T04:33:26;3;3;
36513;PMS5003;74739;46.796;9.824;2024-03-08T04:35:54;2;2;
36513;PMS5003;74739;46.796;9.824;2024-03-08T04:38:22;5;3;
36513;PMS5003;74739;46.796;9.824;2024-03-08T04:40:50;2;2;
36513;PMS5003;74739;46.796;9.824;2024-03-08T04:43:17;3;2;
36513;PMS5003;74739;46.796;9.824;2024-03-08T04:45:45;2;2;
36513;PMS5003;74739;46.796;9.824;2024-03-08T04:48:13;2;2;
36513;PMS5003;74739;46.796;9.824;2024-03-08T04:50:41;3;3;
36513;PMS5003;74739;46.796;9.824;2024-03-08T04:53:09;3;2;
36513;PMS5003;74739;46.796;9.824;2024-03-08T04:55:37;3;3;
36513;PMS5003;74739;46.796;9.824;2024-03-08T04:58:05;2;2;
36513;PMS5003;74739;46.796;9.824;2024-03-08T05:00:34;5;2;
36513;PMS5003;74739;46.796;9.824;2024-03-08T05:03:01;6;5;
36513;PMS5003;74739;46.796;9.824;2024-03-08T05:05:29;6;6;
36513;PMS5003;74739;46.796;9.824;2024-03-08T05:07:56;6;6;
36513;PMS5003;74739;46.796;9.824;2024-03-08T05:10:23;5;5;
36513;PMS5003;74739;46.796;9.824;2024-03-08T05:12:50;7;5;
36513;PMS5003;74739;46.796;9.824;2024-03-08T05:15:17;3;3;
36513;PMS5003;74739;46.796;9.824;2024-03-08T05:17:49;7;5;
36513;PMS5003;74739;46.796;9.824;2024-03-08T05:20:16;7;5;
36513;PMS5003;74739;46.796;9.824;2024-03-08T05:22:43;9;9;
36513;PMS5003;74739;46.796;9.824;2024-03-08T05:25:10;5;5;
36513;PMS5003;74739;46.796;9.824;2024-03-08T05:27:37;5;5;
36513;PMS5003;74739;46.796;9.824;2024-03-08T05:30:05;6;5;
36513;PMS5003;74739;46.796;9.824;2024-03-08T05:32:33;5;5;
36513;PMS5003;74739;46.796;9.824;2024-03-08T05:35:01;5;5;
36513;PMS5003;74739;46.796;9.824;2024-03-08T05:37:28;2;2;
36513;PMS5003;74739;46.796;9.824;2024-03-08T05:39:55;6;5;
36513;PMS5003;74739;46.796;9.824;2024-03-08T05:42:22;3;3;
36513;PMS5003;74739;46.796;9.824;2024-03-08T05:44:50;6;6;
36513;PMS5003;74739;46.796;9.824;2024-03-08T05:47:17;6;6;
36513;PMS5003;74739;46.796;9.824;2024-03-08T05:49:44;5;5;
36513;PMS5003;74739;46.796;9.824;2024-03-08T05:52:11;3;3;
36513;PMS5003;74739;46.796;9.824;2024-03-08T05:54:38;5;3;
36513;PMS5003;74739;46.796;9.824;2024-03-08T05:57:06;6;5;
36513;PMS5003;74739;46.796;9.824;2024-03-08T05:59:33;7;6;
36513;PMS5003;74739;46.796;9.824;2024-03-08T06:02:00;7;6;
36513;PMS5003;74739;46.796;9.824;2024-03-08T06:04:28;6;6;
36513;PMS5003;74739;46.796;9.824;2024-03-08T06:06:55;3;3;
36513;PMS5003;74739;46.796;9.824;2024-03-08T06:09:22;6;6;
36513;PMS5003;74739;46.796;9.824;2024-03-08T06:11:49;11;9;
36513;PMS5003;74739;46.796;9.824;2024-03-08T06:14:16;6;3;
36513;PMS5003;74739;46.796;9.824;2024-03-08T06:16:44;6;5;
36513;PMS5003;74739;46.796;9.824;2024-03-08T06:19:13;6;5;
36513;PMS5003;74739;46.796;9.824;2024-03-08T06:21:40;7;6;
36513;PMS5003;74739;46.796;9.824;2024-03-08T06:24:07;5;3;
36513;PMS5003;74739;46.796;9.824;2024-03-08T06:26:34;6;6;
36513;PMS5003;74739;46.796;9.824;2024-03-08T06:29:01;6;6;
36513;PMS5003;74739;46.796;9.824;2024-03-08T06:31:28;7;7;
36513;PMS5003;74739;46.796;9.824;2024-03-08T06:33:56;8;8;
36513;PMS5003;74739;46.796;9.824;2024-03-08T06:36:23;14;11;
36513;PMS5003;74739;46.796;9.824;2024-03-08T06:38:51;6;6;
36513;PMS5003;74739;46.796;9.824;2024-03-08T06:41:18;12;11;
36513;PMS5003;74739;46.796;9.824;2024-03-08T06:43:46;10;6;
36513;PMS5003;74739;46.796;9.824;2024-03-08T06:46:15;7;7;
36513;PMS5003;74739;46.796;9.824;2024-03-08T06:48:42;6;6;
36513;PMS5003;74739;46.796;9.824;2024-03-08T06:51:11;6;6;
36513;PMS5003;74739;46.796;9.824;2024-03-08T06:53:38;6;6;
36513;PMS5003;74739;46.796;9.824;2024-03-08T06:56:05;7;7;
36513;PMS5003;74739;46.796;9.824;2024-03-08T06:58:32;8;7;
36513;PMS5003;74739;46.796;9.824;2024-03-08T07:00:59;7;6;
36513;PMS5003;74739;46.796;9.824;2024-03-08T07:03:26;7;6;
36513;PMS5003;74739;46.796;9.824;2024-03-08T07:05:53;7;7;
36513;PMS5003;74739;46.796;9.824;2024-03-08T07:08:20;7;7;
36513;PMS5003;74739;46.796;9.824;2024-03-08T07:10:47;8;8;
36513;PMS5003;74739;46.796;9.824;2024-03-08T07:13:15;10;8;
36513;PMS5003;74739;46.796;9.824;2024-03-08T07:15:44;14;10;
36513;PMS5003;74739;46.796;9.824;2024-03-08T07:18:11;10;8;
36513;PMS5003;74739;46.796;9.824;2024-03-08T07:20:39;8;8;
36513;PMS5003;74739;46.796;9.824;2024-03-08T07:23:06;8;7;
36513;PMS5003;74739;46.796;9.824;2024-03-08T07:25:34;8;8;
36513;PMS5003;74739;46.796;9.824;2024-03-08T07:28:01;14;12;
36513;PMS5003;74739;46.796;9.824;2024-03-08T07:30:29;5;5;
36513;PMS5003;74739;46.796;9.824;2024-03-08T07:32:56;12;10;
36513;PMS5003;74739;46.796;9.824;2024-03-08T07:35:23;9;9;
36513;PMS5003;74739;46.796;9.824;2024-03-08T07:37:50;7;6;
36513;PMS5003;74739;46.796;9.824;2024-03-08T07:40:17;6;6;
36513;PMS5003;74739;46.796;9.824;2024-03-08T07:42:44;6;6;
36513;PMS5003;74739;46.796;9.824;2024-03-08T07:45:12;8;8;
36513;PMS5003;74739;46.796;9.824;2024-03-08T07:47:39;13;10;
36513;PMS5003;74739;46.796;9.824;2024-03-08T07:50:06;10;7;
36513;PMS5003;74739;46.796;9.824;2024-03-08T07:52:35;8;8;
36513;PMS5003;74739;46.796;9.824;2024-03-08T07:55:02;10;8;
36513;PMS5003;74739;46.796;9.824;2024-03-08T07:57:30;11;11;
36513;PMS5003;74739;46.796;9.824;2024-03-08T07:59:57;10;7;
36513;PMS5003;74739;46.796;9.824;2024-03-08T08:02:25;8;7;
36513;PMS5003;74739;46.796;9.824;2024-03-08T08:04:52;8;7;
36513;PMS5003;74739;46.796;9.824;2024-03-08T08:07:19;7;7;
36513;PMS5003;74739;46.796;9.824;2024-03-08T08:09:47;11;8;
36513;PMS5003;74739;46.796;9.824;2024-03-08T08:12:14;7;6;
36513;PMS5003;74739;46.796;9.824;2024-03-08T08:12:21;8;7;
36513;PMS5003;74739;46.796;9.824;2024-03-08T08:14:48;8;7;
36513;PMS5003;74739;46.796;9.824;2024-03-08T08:17:15;10;10;
36513;PMS5003;74739;46.796;9.824;2024-03-08T08:19:42;5;5;
36513;PMS5003;74739;46.796;9.824;2024-03-08T08:22:09;6;6;
36513;PMS5003;74739;46.796;9.824;2024-03-08T08:24:36;8;7;
36513;PMS5003;74739;46.796;9.824;2024-03-08T08:27:03;11;9;
36513;PMS5003;74739;46.796;9.824;2024-03-08T08:29:31;6;6;
36513;PMS5003;74739;46.796;9.824;2024-03-08T08:31:58;6;6;
36513;PMS5003;74739;46.796;9.824;2024-03-08T08:34:25;6;6;
36513;PMS5003;74739;46.796;9.824;2024-03-08T08:36:52;6;4;
36513;PMS5003;74739;46.796;9.824;2024-03-08T08:39:19;4;4;
36513;PMS5003;74739;46.796;9.824;2024-03-08T08:41:46;6;6;
36513;PMS5003;74739;46.796;9.824;2024-03-08T08:44:13;9;8;
36513;PMS5003;74739;46.796;9.824;2024-03-08T08:46:40;9;9;
36513;PMS5003;74739;46.796;9.824;2024-03-08T08:49:07;7;7;
36513;PMS5003;74739;46.796;9.824;2024-03-08T08:51:34;8;7;
36513;PMS5003;74739;46.796;9.824;2024-03-08T08:54:02;12;9;
36513;PMS5003;74739;46.796;9.824;2024-03-08T08:56:29;19;14;
36513;PMS5003;74739;46.796;9.824;2024-03-08T08:58:56;24;23;
36513;PMS5003;74739;46.796;9.824;2024-03-08T09:01:23;38;28;
36513;PMS5003;74739;46.796;9.824;2024-03-08T09:03:50;55;43;
36513;PMS5003;74739;46.796;9.824;2024-03-08T09:06:18;39;35;
36513;PMS5003;74739;46.796;9.824;2024-03-08T09:08:44;27;23;
36513;PMS5003;74739;46.796;9.824;2024-03-08T09:11:12;22;22;
36513;PMS5003;74739;46.796;9.824;2024-03-08T09:13:46;26;21;
36513;PMS5003;74739;46.796;9.824;2024-03-08T09:16:13;21;18;
36513;PMS5003;74739;46.796;9.824;2024-03-08T09:18:40;14;13;
36513;PMS5003;74739;46.796;9.824;2024-03-08T09:21:08;8;8;
36513;PMS5003;74739;46.796;9.824;2024-03-08T09:23:35;5;5;
36513;PMS5003;74739;46.796;9.824;2024-03-08T09:26:03;8;7;
36513;PMS5003;74739;46.796;9.824;2024-03-08T09:28:30;9;7;
36513;PMS5003;74739;46.796;9.824;2024-03-08T09:30:57;9;7;
36513;PMS5003;74739;46.796;9.824;2024-03-08T09:33:24;5;5;
36513;PMS5003;74739;46.796;9.824;2024-03-08T09:35:50;7;7;
36513;PMS5003;74739;46.796;9.824;2024-03-08T09:38:17;9;9;
36513;PMS5003;74739;46.796;9.824;2024-03-08T09:40:44;9;6;
36513;PMS5003;74739;46.796;9.824;2024-03-08T09:43:12;6;6;
36513;PMS5003;74739;46.796;9.824;2024-03-08T09:45:40;7;7;
36513;PMS5003;74739;46.796;9.824;2024-03-08T09:48:09;9;8;
36513;PMS5003;74739;46.796;9.824;2024-03-08T09:50:39;10;9;
36513;PMS5003;74739;46.796;9.824;2024-03-08T09:53:12;8;8;
36513;PMS5003;74739;46.796;9.824;2024-03-08T09:55:43;8;6;
36513;PMS5003;74739;46.796;9.824;2024-03-08T09:58:12;6;5;
36513;PMS5003;74739;46.796;9.824;2024-03-08T10:00:41;11;9;
36513;PMS5003;74739;46.796;9.824;2024-03-08T10:03:07;8;8;
36513;PMS5003;74739;46.796;9.824;2024-03-08T10:05:34;8;6;
36513;PMS5003;74739;46.796;9.824;2024-03-08T10:08:02;6;6;
36513;PMS5003;74739;46.796;9.824;2024-03-08T10:10:33;11;10;
36513;PMS5003;74739;46.796;9.824;2024-03-08T10:13:01;7;6;
36513;PMS5003;74739;46.796;9.824;2024-03-08T10:15:29;7;6;
36513;PMS5003;74739;46.796;9.824;2024-03-08T10:17:57;9;7;
36513;PMS5003;74739;46.796;9.824;2024-03-08T10:20:24;6;6;
36513;PMS5003;74739;46.796;9.824;2024-03-08T10:22:51;8;8;
36513;PMS5003;74739;46.796;9.824;2024-03-08T10:25:19;8;8;
36513;PMS5003;74739;46.796;9.824;2024-03-08T10:27:46;9;7;
36513;PMS5003;74739;46.796;9.824;2024-03-08T10:30:14;7;6;
36513;PMS5003;74739;46.796;9.824;2024-03-08T10:32:42;6;5;
36513;PMS5003;74739;46.796;9.824;2024-03-08T10:35:16;7;6;
36513;PMS5003;74739;46.796;9.824;2024-03-08T10:37:45;7;6;
36513;PMS5003;74739;46.796;9.824;2024-03-08T10:40:15;11;8;
36513;PMS5003;74739;46.796;9.824;2024-03-08T10:42:50;7;6;
36513;PMS5003;74739;46.796;9.824;2024-03-08T10:45:23;6;6;
36513;PMS5003;74739;46.796;9.824;2024-03-08T10:48:02;7;6;
36513;PMS5003;74739;46.796;9.824;2024-03-08T10:50:36;7;7;
36513;PMS5003;74739;46.796;9.824;2024-03-08T10:53:05;8;7;
36513;PMS5003;74739;46.796;9.824;2024-03-08T10:55:33;10;9;
36513;PMS5003;74739;46.796;9.824;2024-03-08T10:58:03;6;6;
36513;PMS5003;74739;46.796;9.824;2024-03-08T11:00:31;7;6;
36513;PMS5003;74739;46.796;9.824;2024-03-08T11:02:58;7;6;
36513;PMS5003;74739;46.796;9.824;2024-03-08T11:05:36;6;6;
36513;PMS5003;74739;46.796;9.824;2024-03-08T11:08:06;8;8;
36513;PMS5003;74739;46.796;9.824;2024-03-08T11:10:48;9;7;
36513;PMS5003;74739;46.796;9.824;2024-03-08T11:13:32;5;5;
36513;PMS5003;74739;46.796;9.824;2024-03-08T11:15:59;6;6;
36513;PMS5003;74739;46.796;9.824;2024-03-08T11:18:26;7;6;
36513;PMS5003;74739;46.796;9.824;2024-03-08T11:20:54;6;6;
36513;PMS5003;74739;46.796;9.824;2024-03-08T11:23:22;6;5;
36513;PMS5003;74739;46.796;9.824;2024-03-08T11:25:49;9;8;
36513;PMS5003;74739;46.796;9.824;2024-03-08T11:28:17;7;7;
36513;PMS5003;74739;46.796;9.824;2024-03-08T11:30:45;9;9;
36513;PMS5003;74739;46.796;9.824;2024-03-08T11:33:13;10;10;
36513;PMS5003;74739;46.796;9.824;2024-03-08T11:35:42;6;6;
36513;PMS5003;74739;46.796;9.824;2024-03-08T11:38:09;8;7;
36513;PMS5003;74739;46.796;9.824;2024-03-08T11:40:36;8;7;
36513;PMS5003;74739;46.796;9.824;2024-03-08T11:43:03;6;6;
36513;PMS5003;74739;46.796;9.824;2024-03-08T11:45:31;8;8;
36513;PMS5003;74739;46.796;9.824;2024-03-08T11:47:58;9;8;
36513;PMS5003;74739;46.796;9.824;2024-03-08T11:50:26;9;9;
36513;PMS5003;74739;46.796;9.824;2024-03-08T11:52:53;12;10;
36513;PMS5003;74739;46.796;9.824;2024-03-08T11:55:19;7;7;
36513;PMS5003;74739;46.796;9.824;2024-03-08T11:57:48;6;6;
36513;PMS5003;74739;46.796;9.824;2024-03-08T12:00:16;6;6;
36513;PMS5003;74739;46.796;9.824;2024-03-08T12:02:45;6;6;
36513;PMS5003;74739;46.796;9.824;2024-03-08T12:05:11;7;7;
36513;PMS5003;74739;46.796;9.824;2024-03-08T12:07:38;6;6;
36513;PMS5003;74739;46.796;9.824;2024-03-08T12:10:21;8;8;
36513;PMS5003;74739;46.796;9.824;2024-03-08T12:12:50;6;5;
36513;PMS5003;74739;46.796;9.824;2024-03-08T12:15:19;5;5;
36513;PMS5003;74739;46.796;9.824;2024-03-08T12:17:48;7;6;
36513;PMS5003;74739;46.796;9.824;2024-03-08T12:20:16;7;6;
36513;PMS5003;74739;46.796;9.824;2024-03-08T12:22:45;6;5;
36513;PMS5003;74739;46.796;9.824;2024-03-08T12:25:13;5;5;
36513;PMS5003;74739;46.796;9.824;2024-03-08T12:27:43;6;5;
36513;PMS5003;74739;46.796;9.824;2024-03-08T12:30:19;8;6;
36513;PMS5003;74739;46.796;9.824;2024-03-08T12:32:50;6;6;
36513;PMS5003;74739;46.796;9.824;2024-03-08T12:35:19;8;8;
36513;PMS5003;74739;46.796;9.824;2024-03-08T12:37:47;7;7;
36513;PMS5003;74739;46.796;9.824;2024-03-08T12:40:15;8;6;
36513;PMS5003;74739;46.796;9.824;2024-03-08T12:42:42;6;4;
36513;PMS5003;74739;46.796;9.824;2024-03-08T12:45:10;5;5;
36513;PMS5003;74739;46.796;9.824;2024-03-08T12:47:38;6;6;
36513;PMS5003;74739;46.796;9.824;2024-03-08T12:50:05;8;7;
36513;PMS5003;74739;46.796;9.824;2024-03-08T12:52:33;7;4;
36513;PMS5003;74739;46.796;9.824;2024-03-08T12:55:00;4;4;
36513;PMS5003;74739;46.796;9.824;2024-03-08T12:57:28;6;6;
36513;PMS5003;74739;46.796;9.824;2024-03-08T12:59:55;5;5;
36513;PMS5003;74739;46.796;9.824;2024-03-08T13:02:23;5;5;
36513;PMS5003;74739;46.796;9.824;2024-03-08T13:04:50;6;6;
36513;PMS5003;74739;46.796;9.824;2024-03-08T13:07:18;4;4;
36513;PMS5003;74739;46.796;9.824;2024-03-08T13:09:45;6;6;
36513;PMS5003;74739;46.796;9.824;2024-03-08T13:12:13;4;4;
36513;PMS5003;74739;46.796;9.824;2024-03-08T13:14:40;6;4;
36513;PMS5003;74739;46.796;9.824;2024-03-08T13:17:07;5;4;
36513;PMS5003;74739;46.796;9.824;2024-03-08T13:19:34;6;4;
36513;PMS5003;74739;46.796;9.824;2024-03-08T13:22:01;6;4;
36513;PMS5003;74739;46.796;9.824;2024-03-08T13:24:28;4;4;
36513;PMS5003;74739;46.796;9.824;2024-03-08T13:26:55;5;5;
36513;PMS5003;74739;46.796;9.824;2024-03-08T13:29:23;5;5;
36513;PMS5003;74739;46.796;9.824;2024-03-08T13:31:50;9;7;
36513;PMS5003;74739;46.796;9.824;2024-03-08T13:34:19;5;4;
36513;PMS5003;74739;46.796;9.824;2024-03-08T13:36:46;4;4;
36513;PMS5003;74739;46.796;9.824;2024-03-08T13:39:14;7;5;
36513;PMS5003;74739;46.796;9.824;2024-03-08T13:41:41;7;4;
36513;PMS5003;74739;46.796;9.824;2024-03-08T13:44:09;5;5;
36513;PMS5003;74739;46.796;9.824;2024-03-08T13:46:36;4;4;
36513;PMS5003;74739;46.796;9.824;2024-03-08T13:49:03;7;7;
36513;PMS5003;74739;46.796;9.824;2024-03-08T13:51:31;4;4;
36513;PMS5003;74739;46.796;9.824;2024-03-08T13:53:58;5;5;
36513;PMS5003;74739;46.796;9.824;2024-03-08T13:56:26;7;7;
36513;PMS5003;74739;46.796;9.824;2024-03-08T13:58:53;4;4;
36513;PMS5003;74739;46.796;9.824;2024-03-08T14:01:20;5;5;
36513;PMS5003;74739;46.796;9.824;2024-03-08T14:03:48;6;5;
36513;PMS5003;74739;46.796;9.824;2024-03-08T14:06:15;4;4;
36513;PMS5003;74739;46.796;9.824;2024-03-08T14:08:42;5;5;
36513;PMS5003;74739;46.796;9.824;2024-03-08T14:11:14;6;5;
36513;PMS5003;74739;46.796;9.824;2024-03-08T14:13:41;5;4;
36513;PMS5003;74739;46.796;9.824;2024-03-08T14:16:08;6;6;
36513;PMS5003;74739;46.796;9.824;2024-03-08T14:18:36;5;5;
36513;PMS5003;74739;46.796;9.824;2024-03-08T14:21:04;7;6;
36513;PMS5003;74739;46.796;9.824;2024-03-08T14:23:31;4;4;
36513;PMS5003;74739;46.796;9.824;2024-03-08T14:26:04;6;5;
36513;PMS5003;74739;46.796;9.824;2024-03-08T14:28:31;4;3;
36513;PMS5003;74739;46.796;9.824;2024-03-08T14:30:58;7;6;
36513;PMS5003;74739;46.796;9.824;2024-03-08T14:33:25;6;6;
36513;PMS5003;74739;46.796;9.824;2024-03-08T14:35:51;5;4;
36513;PMS5003;74739;46.796;9.824;2024-03-08T14:38:19;4;4;
36513;PMS5003;74739;46.796;9.824;2024-03-08T14:40:45;5;4;
36513;PMS5003;74739;46.796;9.824;2024-03-08T14:43:13;3;3;
36513;PMS5003;74739;46.796;9.824;2024-03-08T14:45:41;6;5;
36513;PMS5003;74739;46.796;9.824;2024-03-08T14:48:08;7;7;
36513;PMS5003;74739;46.796;9.824;2024-03-08T14:50:35;5;4;
36513;PMS5003;74739;46.796;9.824;2024-03-08T14:53:02;6;5;
36513;PMS5003;74739;46.796;9.824;2024-03-08T14:55:30;7;6;
36513;PMS5003;74739;46.796;9.824;2024-03-08T14:57:57;5;5;
36513;PMS5003;74739;46.796;9.824;2024-03-08T15:00:24;7;7;
36513;PMS5003;74739;46.796;9.824;2024-03-08T15:02:52;5;5;
36513;PMS5003;74739;46.796;9.824;2024-03-08T15:05:19;7;7;
36513;PMS5003;74739;46.796;9.824;2024-03-08T15:07:47;5;5;
36513;PMS5003;74739;46.796;9.824;2024-03-08T15:10:15;5;4;
36513;PMS5003;74739;46.796;9.824;2024-03-08T15:12:43;6;5;
36513;PMS5003;74739;46.796;9.824;2024-03-08T15:15:11;3;3;
36513;PMS5003;74739;46.796;9.824;2024-03-08T15:17:39;6;6;
36513;PMS5003;74739;46.796;9.824;2024-03-08T15:20:06;5;4;
36513;PMS5003;74739;46.796;9.824;2024-03-08T15:22:34;5;5;
36513;PMS5003;74739;46.796;9.824;2024-03-08T15:25:00;7;6;
36513;PMS5003;74739;46.796;9.824;2024-03-08T15:27:27;6;4;
36513;PMS5003;74739;46.796;9.824;2024-03-08T15:29:54;5;5;
36513;PMS5003;74739;46.796;9.824;2024-03-08T15:32:20;6;6;
36513;PMS5003;74739;46.796;9.824;2024-03-08T15:34:47;6;5;
36513;PMS5003;74739;46.796;9.824;2024-03-08T15:37:14;7;5;
36513;PMS5003;74739;46.796;9.824;2024-03-08T15:39:41;8;7;
36513;PMS5003;74739;46.796;9.824;2024-03-08T15:42:08;7;6;
36513;PMS5003;74739;46.796;9.824;2024-03-08T15:44:35;5;5;
36513;PMS5003;74739;46.796;9.824;2024-03-08T15:47:01;5;5;
36513;PMS5003;74739;46.796;9.824;2024-03-08T15:49:29;5;5;
36513;PMS5003;74739;46.796;9.824;2024-03-08T15:51:56;8;7;
36513;PMS5003;74739;46.796;9.824;2024-03-08T15:54:23;5;5;
36513;PMS5003;74739;46.796;9.824;2024-03-08T15:56:49;4;4;
36513;PMS5003;74739;46.796;9.824;2024-03-08T15:59:16;4;3;
36513;PMS5003;74739;46.796;9.824;2024-03-08T16:01:44;4;4;
36513;PMS5003;74739;46.796;9.824;2024-03-08T16:04:11;3;3;
36513;PMS5003;74739;46.796;9.824;2024-03-08T16:06:37;5;5;
36513;PMS5003;74739;46.796;9.824;2024-03-08T16:09:04;5;5;
36513;PMS5003;74739;46.796;9.824;2024-03-08T16:11:31;5;4;
36513;PMS5003;74739;46.796;9.824;2024-03-08T16:13:58;6;5;
36513;PMS5003;74739;46.796;9.824;2024-03-08T16:16:24;4;4;
36513;PMS5003;74739;46.796;9.824;2024-03-08T16:18:51;3;3;
36513;PMS5003;74739;46.796;9.824;2024-03-08T16:21:18;6;5;
36513;PMS5003;74739;46.796;9.824;2024-03-08T16:23:45;5;5;
36513;PMS5003;74739;46.796;9.824;2024-03-08T16:26:11;4;4;
36513;PMS5003;74739;46.796;9.824;2024-03-08T16:28:38;6;5;
36513;PMS5003;74739;46.796;9.824;2024-03-08T16:31:05;7;6;
36513;PMS5003;74739;46.796;9.824;2024-03-08T16:33:32;5;5;
36513;PMS5003;74739;46.796;9.824;2024-03-08T16:35:58;7;6;
36513;PMS5003;74739;46.796;9.824;2024-03-08T16:38:25;6;4;
36513;PMS5003;74739;46.796;9.824;2024-03-08T16:40:52;4;4;
36513;PMS5003;74739;46.796;9.824;2024-03-08T16:43:19;5;5;
36513;PMS5003;74739;46.796;9.824;2024-03-08T16:45:47;4;4;
36513;PMS5003;74739;46.796;9.824;2024-03-08T16:48:14;5;4;
36513;PMS5003;74739;46.796;9.824;2024-03-08T16:50:41;5;5;